sensor_id;sensor_type;location;lat;lon;timestamp;P1;durP1;ratioP1;P2;durP2;ratioP2
20619;SDS011;10469;42.720;23.252;2023-05-07T00:00:37;11.23;;;7.35;;
20619;SDS011;10469;42.720;23.252;2023-05-07T00:03:02;10.70;;;8.05;;
20619;SDS011;10469;42.720;23.252;2023-05-07T00:05:28;14.00;;;7.75;;
20619;SDS011;10469;42.720;23.252;2023-05-07T00:07:54;14.35;;;8.10;;
20619;SDS011;10469;42.720;23.252;2023-05-07T00:10:19;16.00;;;7.25;;
20619;SDS011;10469;42.720;23.252;2023-05-07T00:12:45;13.85;;;7.95;;
20619;SDS011;10469;42.720;23.252;2023-05-07T00:15:10;14.35;;;7.80;;
20619;SDS011;10469;42.720;23.252;2023-05-07T00:17:36;10.15;;;7.13;;
20619;SDS011;10469;42.720;23.252;2023-05-07T00:20:02;10.57;;;7.10;;
20619;SDS011;10469;42.720;23.252;2023-05-07T00:22:30;10.95;;;7.80;;
20619;SDS011;10469;42.720;23.252;2023-05-07T00:24:57;13.57;;;7.22;;
20619;SDS011;10469;42.720;23.252;2023-05-07T00:27:23;9.63;;;7.40;;
20619;SDS011;10469;42.720;23.252;2023-05-07T00:29:49;13.38;;;7.57;;
20619;SDS011;10469;42.720;23.252;2023-05-07T00:32:15;12.00;;;6.90;;
20619;SDS011;10469;42.720;23.252;2023-05-07T00:34:40;10.50;;;7.85;;
20619;SDS011;10469;42.720;23.252;2023-05-07T00:37:06;10.35;;;8.20;;
20619;SDS011;10469;42.720;23.252;2023-05-07T00:39:35;11.45;;;8.05;;
20619;SDS011;10469;42.720;23.252;2023-05-07T00:42:01;10.55;;;7.78;;
20619;SDS011;10469;42.720;23.252;2023-05-07T00:44:27;10.95;;;7.82;;
20619;SDS011;10469;42.720;23.252;2023-05-07T00:46:53;9.95;;;7.57;;
20619;SDS011;10469;42.720;23.252;2023-05-07T00:49:19;11.18;;;7.15;;
20619;SDS011;10469;42.720;23.252;2023-05-07T00:51:45;13.98;;;7.72;;
20619;SDS011;10469;42.720;23.252;2023-05-07T00:54:11;11.32;;;7.30;;
20619;SDS011;10469;42.720;23.252;2023-05-07T00:56:38;13.43;;;7.75;;
20619;SDS011;10469;42.720;23.252;2023-05-07T00:59:05;11.60;;;7.70;;
20619;SDS011;10469;42.720;23.252;2023-05-07T01:01:31;9.77;;;7.43;;
20619;SDS011;10469;42.720;23.252;2023-05-07T01:03:57;14.65;;;7.50;;
20619;SDS011;10469;42.720;23.252;2023-05-07T01:06:23;11.77;;;7.32;;
20619;SDS011;10469;42.720;23.252;2023-05-07T01:08:50;10.27;;;7.28;;
20619;SDS011;10469;42.720;23.252;2023-05-07T01:11:18;13.95;;;8.35;;
20619;SDS011;10469;42.720;23.252;2023-05-07T01:13:45;9.15;;;7.45;;
20619;SDS011;10469;42.720;23.252;2023-05-07T01:16:12;14.85;;;7.50;;
20619;SDS011;10469;42.720;23.252;2023-05-07T01:18:38;10.85;;;7.18;;
20619;SDS011;10469;42.720;23.252;2023-05-07T01:21:04;14.90;;;7.63;;
20619;SDS011;10469;42.720;23.252;2023-05-07T01:23:30;12.00;;;8.07;;
20619;SDS011;10469;42.720;23.252;2023-05-07T01:25:57;10.60;;;7.90;;
20619;SDS011;10469;42.720;23.252;2023-05-07T01:28:22;15.93;;;8.88;;
20619;SDS011;10469;42.720;23.252;2023-05-07T01:30:54;11.15;;;8.23;;
20619;SDS011;10469;42.720;23.252;2023-05-07T01:33:21;14.40;;;8.70;;
20619;SDS011;10469;42.720;23.252;2023-05-07T01:35:48;11.65;;;8.50;;
20619;SDS011;10469;42.720;23.252;2023-05-07T01:38:16;11.82;;;9.10;;
20619;SDS011;10469;42.720;23.252;2023-05-07T01:40:43;12.23;;;8.75;;
20619;SDS011;10469;42.720;23.252;2023-05-07T01:43:09;11.75;;;8.52;;
20619;SDS011;10469;42.720;23.252;2023-05-07T01:45:35;15.57;;;9.10;;
20619;SDS011;10469;42.720;23.252;2023-05-07T01:48:01;20.42;;;9.23;;
20619;SDS011;10469;42.720;23.252;2023-05-07T01:50:28;10.85;;;8.10;;
20619;SDS011;10469;42.720;23.252;2023-05-07T01:52:55;11.80;;;8.57;;
20619;SDS011;10469;42.720;23.252;2023-05-07T01:55:20;14.07;;;8.77;;
20619;SDS011;10469;42.720;23.252;2023-05-07T01:57:46;12.05;;;8.05;;
20619;SDS011;10469;42.720;23.252;2023-05-07T02:00:12;12.32;;;8.73;;
20619;SDS011;10469;42.720;23.252;2023-05-07T02:02:38;12.85;;;8.27;;
20619;SDS011;10469;42.720;23.252;2023-05-07T02:05:04;10.18;;;8.02;;
20619;SDS011;10469;42.720;23.252;2023-05-07T02:07:30;14.38;;;8.07;;
20619;SDS011;10469;42.720;23.252;2023-05-07T02:09:55;16.55;;;9.15;;
20619;SDS011;10469;42.720;23.252;2023-05-07T02:12:21;21.48;;;8.93;;
20619;SDS011;10469;42.720;23.252;2023-05-07T02:14:47;12.27;;;8.75;;
20619;SDS011;10469;42.720;23.252;2023-05-07T02:17:13;11.65;;;8.80;;
20619;SDS011;10469;42.720;23.252;2023-05-07T02:19:39;12.05;;;8.98;;
20619;SDS011;10469;42.720;23.252;2023-05-07T02:22:04;12.40;;;9.05;;
20619;SDS011;10469;42.720;23.252;2023-05-07T02:24:30;10.15;;;8.32;;
20619;SDS011;10469;42.720;23.252;2023-05-07T02:26:55;13.93;;;9.18;;
20619;SDS011;10469;42.720;23.252;2023-05-07T02:29:21;14.15;;;9.45;;
20619;SDS011;10469;42.720;23.252;2023-05-07T02:31:47;12.75;;;9.48;;
20619;SDS011;10469;42.720;23.252;2023-05-07T02:34:16;13.55;;;9.70;;
20619;SDS011;10469;42.720;23.252;2023-05-07T02:36:42;20.88;;;10.35;;
20619;SDS011;10469;42.720;23.252;2023-05-07T02:39:07;13.68;;;9.45;;
20619;SDS011;10469;42.720;23.252;2023-05-07T02:41:33;19.00;;;9.63;;
20619;SDS011;10469;42.720;23.252;2023-05-07T02:43:59;11.07;;;9.50;;
20619;SDS011;10469;42.720;23.252;2023-05-07T02:46:24;13.93;;;9.07;;
20619;SDS011;10469;42.720;23.252;2023-05-07T02:48:50;10.73;;;8.55;;
20619;SDS011;10469;42.720;23.252;2023-05-07T02:51:17;18.15;;;9.32;;
20619;SDS011;10469;42.720;23.252;2023-05-07T02:53:45;14.02;;;10.60;;
20619;SDS011;10469;42.720;23.252;2023-05-07T02:56:11;15.77;;;10.00;;
20619;SDS011;10469;42.720;23.252;2023-05-07T02:58:37;13.10;;;9.00;;
20619;SDS011;10469;42.720;23.252;2023-05-07T03:01:04;12.10;;;9.07;;
20619;SDS011;10469;42.720;23.252;2023-05-07T03:03:32;15.15;;;9.63;;
20619;SDS011;10469;42.720;23.252;2023-05-07T03:05:57;12.88;;;9.80;;
20619;SDS011;10469;42.720;23.252;2023-05-07T03:08:24;12.68;;;9.07;;
20619;SDS011;10469;42.720;23.252;2023-05-07T03:10:49;15.38;;;9.05;;
20619;SDS011;10469;42.720;23.252;2023-05-07T03:13:15;11.55;;;8.77;;
20619;SDS011;10469;42.720;23.252;2023-05-07T03:15:40;12.98;;;9.93;;
20619;SDS011;10469;42.720;23.252;2023-05-07T03:18:06;15.05;;;9.23;;
20619;SDS011;10469;42.720;23.252;2023-05-07T03:20:32;13.65;;;9.68;;
20619;SDS011;10469;42.720;23.252;2023-05-07T03:22:57;13.68;;;9.50;;
20619;SDS011;10469;42.720;23.252;2023-05-07T03:25:23;15.60;;;9.45;;
20619;SDS011;10469;42.720;23.252;2023-05-07T03:27:48;14.15;;;9.18;;
20619;SDS011;10469;42.720;23.252;2023-05-07T03:30:14;18.23;;;10.25;;
20619;SDS011;10469;42.720;23.252;2023-05-07T03:32:40;13.57;;;10.02;;
20619;SDS011;10469;42.720;23.252;2023-05-07T03:35:05;11.82;;;9.45;;
20619;SDS011;10469;42.720;23.252;2023-05-07T03:37:32;19.77;;;10.05;;
20619;SDS011;10469;42.720;23.252;2023-05-07T03:39:57;13.65;;;9.15;;
20619;SDS011;10469;42.720;23.252;2023-05-07T03:42:23;16.20;;;9.23;;
20619;SDS011;10469;42.720;23.252;2023-05-07T03:44:49;14.15;;;9.80;;
20619;SDS011;10469;42.720;23.252;2023-05-07T03:47:14;14.73;;;9.38;;
20619;SDS011;10469;42.720;23.252;2023-05-07T03:49:40;12.18;;;9.35;;
20619;SDS011;10469;42.720;23.252;2023-05-07T03:52:06;14.93;;;9.32;;
20619;SDS011;10469;42.720;23.252;2023-05-07T03:54:31;12.05;;;9.50;;
20619;SDS011;10469;42.720;23.252;2023-05-07T03:56:57;11.05;;;8.93;;
20619;SDS011;10469;42.720;23.252;2023-05-07T03:59:23;12.57;;;9.25;;
20619;SDS011;10469;42.720;23.252;2023-05-07T04:01:48;13.90;;;9.35;;
20619;SDS011;10469;42.720;23.252;2023-05-07T04:04:14;12.82;;;9.45;;
20619;SDS011;10469;42.720;23.252;2023-05-07T04:06:40;12.00;;;9.13;;
20619;SDS011;10469;42.720;23.252;2023-05-07T04:09:06;12.88;;;9.52;;
20619;SDS011;10469;42.720;23.252;2023-05-07T04:11:31;14.70;;;9.23;;
20619;SDS011;10469;42.720;23.252;2023-05-07T04:13:57;11.68;;;9.45;;
20619;SDS011;10469;42.720;23.252;2023-05-07T04:16:23;12.68;;;8.98;;
20619;SDS011;10469;42.720;23.252;2023-05-07T04:18:48;13.27;;;9.27;;
20619;SDS011;10469;42.720;23.252;2023-05-07T04:21:18;15.27;;;9.13;;
20619;SDS011;10469;42.720;23.252;2023-05-07T04:23:45;13.23;;;9.30;;
20619;SDS011;10469;42.720;23.252;2023-05-07T04:26:12;17.25;;;9.23;;
20619;SDS011;10469;42.720;23.252;2023-05-07T04:28:38;12.63;;;9.10;;
20619;SDS011;10469;42.720;23.252;2023-05-07T04:31:04;15.02;;;8.65;;
20619;SDS011;10469;42.720;23.252;2023-05-07T04:33:30;13.07;;;9.02;;
20619;SDS011;10469;42.720;23.252;2023-05-07T04:35:56;15.13;;;9.07;;
20619;SDS011;10469;42.720;23.252;2023-05-07T04:38:21;11.43;;;8.40;;
20619;SDS011;10469;42.720;23.252;2023-05-07T04:40:48;12.98;;;8.63;;
20619;SDS011;10469;42.720;23.252;2023-05-07T04:43:14;14.23;;;8.93;;
20619;SDS011;10469;42.720;23.252;2023-05-07T04:45:41;12.80;;;8.73;;
20619;SDS011;10469;42.720;23.252;2023-05-07T04:48:06;15.20;;;9.05;;
20619;SDS011;10469;42.720;23.252;2023-05-07T04:50:34;20.67;;;8.65;;
20619;SDS011;10469;42.720;23.252;2023-05-07T04:52:59;13.63;;;8.18;;
20619;SDS011;10469;42.720;23.252;2023-05-07T04:55:25;10.00;;;7.85;;
20619;SDS011;10469;42.720;23.252;2023-05-07T04:57:51;14.55;;;8.05;;
20619;SDS011;10469;42.720;23.252;2023-05-07T05:00:17;12.85;;;8.20;;
20619;SDS011;10469;42.720;23.252;2023-05-07T05:02:44;10.25;;;8.50;;
20619;SDS011;10469;42.720;23.252;2023-05-07T05:05:10;11.70;;;8.40;;
20619;SDS011;10469;42.720;23.252;2023-05-07T05:07:36;10.90;;;8.38;;
20619;SDS011;10469;42.720;23.252;2023-05-07T05:10:02;14.77;;;8.88;;
20619;SDS011;10469;42.720;23.252;2023-05-07T05:12:29;12.13;;;8.20;;
20619;SDS011;10469;42.720;23.252;2023-05-07T05:14:55;21.05;;;9.32;;
20619;SDS011;10469;42.720;23.252;2023-05-07T05:17:21;15.73;;;8.80;;
20619;SDS011;10469;42.720;23.252;2023-05-07T05:19:46;11.20;;;8.52;;
20619;SDS011;10469;42.720;23.252;2023-05-07T05:22:12;10.90;;;8.77;;
20619;SDS011;10469;42.720;23.252;2023-05-07T05:24:37;9.30;;;8.25;;
20619;SDS011;10469;42.720;23.252;2023-05-07T05:27:03;14.75;;;9.35;;
20619;SDS011;10469;42.720;23.252;2023-05-07T05:29:29;15.75;;;8.77;;
20619;SDS011;10469;42.720;23.252;2023-05-07T05:31:56;10.88;;;8.63;;
20619;SDS011;10469;42.720;23.252;2023-05-07T05:34:21;11.80;;;9.07;;
20619;SDS011;10469;42.720;23.252;2023-05-07T05:36:47;14.60;;;8.73;;
20619;SDS011;10469;42.720;23.252;2023-05-07T05:39:13;15.77;;;9.20;;
20619;SDS011;10469;42.720;23.252;2023-05-07T05:41:39;15.95;;;10.07;;
20619;SDS011;10469;42.720;23.252;2023-05-07T05:44:05;13.63;;;9.50;;
20619;SDS011;10469;42.720;23.252;2023-05-07T05:46:31;15.90;;;9.15;;
20619;SDS011;10469;42.720;23.252;2023-05-07T05:48:57;24.48;;;9.60;;
20619;SDS011;10469;42.720;23.252;2023-05-07T05:51:22;14.35;;;8.45;;
20619;SDS011;10469;42.720;23.252;2023-05-07T05:53:48;13.50;;;9.13;;
20619;SDS011;10469;42.720;23.252;2023-05-07T05:56:13;11.20;;;9.77;;
20619;SDS011;10469;42.720;23.252;2023-05-07T05:58:40;12.30;;;9.23;;
20619;SDS011;10469;42.720;23.252;2023-05-07T06:01:05;12.13;;;9.13;;
20619;SDS011;10469;42.720;23.252;2023-05-07T06:03:31;12.25;;;10.45;;
20619;SDS011;10469;42.720;23.252;2023-05-07T06:06:00;10.77;;;9.07;;
20619;SDS011;10469;42.720;23.252;2023-05-07T06:08:28;13.60;;;8.90;;
20619;SDS011;10469;42.720;23.252;2023-05-07T06:10:54;12.30;;;8.75;;
20619;SDS011;10469;42.720;23.252;2023-05-07T06:13:20;11.52;;;8.73;;
20619;SDS011;10469;42.720;23.252;2023-05-07T06:15:45;15.48;;;8.90;;
20619;SDS011;10469;42.720;23.252;2023-05-07T06:18:11;11.23;;;9.13;;
20619;SDS011;10469;42.720;23.252;2023-05-07T06:20:36;19.27;;;9.50;;
20619;SDS011;10469;42.720;23.252;2023-05-07T06:23:02;14.40;;;9.20;;
20619;SDS011;10469;42.720;23.252;2023-05-07T06:25:27;18.58;;;9.60;;
20619;SDS011;10469;42.720;23.252;2023-05-07T06:27:53;14.35;;;8.82;;
20619;SDS011;10469;42.720;23.252;2023-05-07T06:30:18;12.05;;;9.30;;
20619;SDS011;10469;42.720;23.252;2023-05-07T06:32:44;13.40;;;9.45;;
20619;SDS011;10469;42.720;23.252;2023-05-07T06:35:09;11.82;;;9.00;;
20619;SDS011;10469;42.720;23.252;2023-05-07T06:37:35;13.63;;;9.73;;
20619;SDS011;10469;42.720;23.252;2023-05-07T06:40:03;12.48;;;9.05;;
20619;SDS011;10469;42.720;23.252;2023-05-07T06:42:30;14.60;;;9.00;;
20619;SDS011;10469;42.720;23.252;2023-05-07T06:44:56;12.45;;;8.85;;
20619;SDS011;10469;42.720;23.252;2023-05-07T06:47:21;11.55;;;8.55;;
20619;SDS011;10469;42.720;23.252;2023-05-07T06:49:47;13.50;;;8.85;;
20619;SDS011;10469;42.720;23.252;2023-05-07T06:52:12;14.35;;;8.88;;
20619;SDS011;10469;42.720;23.252;2023-05-07T06:54:38;13.38;;;8.75;;
20619;SDS011;10469;42.720;23.252;2023-05-07T06:57:03;13.63;;;9.02;;
20619;SDS011;10469;42.720;23.252;2023-05-07T06:59:29;12.68;;;9.18;;
20619;SDS011;10469;42.720;23.252;2023-05-07T07:01:54;10.30;;;8.88;;
20619;SDS011;10469;42.720;23.252;2023-05-07T07:04:20;14.32;;;9.48;;
20619;SDS011;10469;42.720;23.252;2023-05-07T07:06:47;13.40;;;9.23;;
20619;SDS011;10469;42.720;23.252;2023-05-07T07:09:12;11.35;;;9.45;;
20619;SDS011;10469;42.720;23.252;2023-05-07T07:11:38;13.77;;;9.48;;
20619;SDS011;10469;42.720;23.252;2023-05-07T07:14:04;15.38;;;9.23;;
20619;SDS011;10469;42.720;23.252;2023-05-07T07:16:30;15.05;;;8.73;;
20619;SDS011;10469;42.720;23.252;2023-05-07T07:18:56;11.10;;;8.45;;
20619;SDS011;10469;42.720;23.252;2023-05-07T07:21:21;11.75;;;7.75;;
20619;SDS011;10469;42.720;23.252;2023-05-07T07:23:47;13.10;;;8.57;;
20619;SDS011;10469;42.720;23.252;2023-05-07T07:26:12;13.00;;;8.25;;
20619;SDS011;10469;42.720;23.252;2023-05-07T07:28:44;11.00;;;7.82;;
20619;SDS011;10469;42.720;23.252;2023-05-07T07:31:11;13.50;;;8.75;;
20619;SDS011;10469;42.720;23.252;2023-05-07T07:33:37;12.55;;;7.78;;
20619;SDS011;10469;42.720;23.252;2023-05-07T07:36:02;12.50;;;8.10;;
20619;SDS011;10469;42.720;23.252;2023-05-07T07:38:28;13.32;;;8.00;;
20619;SDS011;10469;42.720;23.252;2023-05-07T07:40:54;16.27;;;7.90;;
20619;SDS011;10469;42.720;23.252;2023-05-07T07:43:19;9.77;;;8.55;;
20619;SDS011;10469;42.720;23.252;2023-05-07T07:45:45;11.48;;;8.07;;
20619;SDS011;10469;42.720;23.252;2023-05-07T07:48:11;11.00;;;7.78;;
20619;SDS011;10469;42.720;23.252;2023-05-07T07:50:36;11.77;;;7.78;;
20619;SDS011;10469;42.720;23.252;2023-05-07T07:53:02;10.70;;;7.10;;
20619;SDS011;10469;42.720;23.252;2023-05-07T07:55:28;9.77;;;7.63;;
20619;SDS011;10469;42.720;23.252;2023-05-07T07:57:54;8.40;;;7.50;;
20619;SDS011;10469;42.720;23.252;2023-05-07T08:00:19;9.02;;;7.45;;
20619;SDS011;10469;42.720;23.252;2023-05-07T08:02:45;13.18;;;7.88;;
20619;SDS011;10469;42.720;23.252;2023-05-07T08:05:10;11.68;;;7.72;;
20619;SDS011;10469;42.720;23.252;2023-05-07T08:07:36;13.13;;;8.50;;
20619;SDS011;10469;42.720;23.252;2023-05-07T08:10:02;12.90;;;8.10;;
20619;SDS011;10469;42.720;23.252;2023-05-07T08:12:28;9.95;;;7.32;;
20619;SDS011;10469;42.720;23.252;2023-05-07T08:14:53;12.25;;;7.38;;
20619;SDS011;10469;42.720;23.252;2023-05-07T08:17:19;11.68;;;7.28;;
20619;SDS011;10469;42.720;23.252;2023-05-07T08:19:47;10.02;;;6.82;;
20619;SDS011;10469;42.720;23.252;2023-05-07T08:22:13;14.15;;;6.72;;
20619;SDS011;10469;42.720;23.252;2023-05-07T08:24:39;8.60;;;6.53;;
20619;SDS011;10469;42.720;23.252;2023-05-07T08:27:05;10.30;;;6.45;;
20619;SDS011;10469;42.720;23.252;2023-05-07T08:29:30;10.52;;;6.55;;
20619;SDS011;10469;42.720;23.252;2023-05-07T08:31:56;10.85;;;6.40;;
20619;SDS011;10469;42.720;23.252;2023-05-07T08:34:21;9.27;;;6.38;;
20619;SDS011;10469;42.720;23.252;2023-05-07T08:36:47;14.45;;;6.30;;
20619;SDS011;10469;42.720;23.252;2023-05-07T08:39:14;5.95;;;5.28;;
20619;SDS011;10469;42.720;23.252;2023-05-07T08:41:43;10.98;;;5.97;;
20619;SDS011;10469;42.720;23.252;2023-05-07T08:44:13;11.38;;;5.32;;
20619;SDS011;10469;42.720;23.252;2023-05-07T08:46:39;6.78;;;4.97;;
20619;SDS011;10469;42.720;23.252;2023-05-07T08:49:06;7.43;;;5.78;;
20619;SDS011;10469;42.720;23.252;2023-05-07T08:51:32;7.38;;;4.38;;
20619;SDS011;10469;42.720;23.252;2023-05-07T08:53:58;7.82;;;4.70;;
20619;SDS011;10469;42.720;23.252;2023-05-07T08:56:26;9.15;;;5.35;;
20619;SDS011;10469;42.720;23.252;2023-05-07T08:58:51;6.60;;;5.05;;
20619;SDS011;10469;42.720;23.252;2023-05-07T09:01:21;7.72;;;4.68;;
20619;SDS011;10469;42.720;23.252;2023-05-07T09:03:47;7.22;;;5.35;;
20619;SDS011;10469;42.720;23.252;2023-05-07T09:06:12;8.73;;;5.60;;
20619;SDS011;10469;42.720;23.252;2023-05-07T09:08:38;6.95;;;4.93;;
20619;SDS011;10469;42.720;23.252;2023-05-07T09:11:03;5.40;;;4.60;;
20619;SDS011;10469;42.720;23.252;2023-05-07T09:13:29;7.07;;;5.18;;
20619;SDS011;10469;42.720;23.252;2023-05-07T09:15:55;9.93;;;4.88;;
20619;SDS011;10469;42.720;23.252;2023-05-07T09:18:23;8.85;;;4.85;;
20619;SDS011;10469;42.720;23.252;2023-05-07T09:20:50;5.97;;;4.35;;
20619;SDS011;10469;42.720;23.252;2023-05-07T09:23:15;16.23;;;4.60;;
20619;SDS011;10469;42.720;23.252;2023-05-07T09:25:41;9.35;;;4.05;;
20619;SDS011;10469;42.720;23.252;2023-05-07T09:28:07;6.20;;;3.85;;
20619;SDS011;10469;42.720;23.252;2023-05-07T09:30:34;9.57;;;4.00;;
20619;SDS011;10469;42.720;23.252;2023-05-07T09:33:01;4.90;;;3.72;;
20619;SDS011;10469;42.720;23.252;2023-05-07T09:35:27;6.28;;;4.05;;
20619;SDS011;10469;42.720;23.252;2023-05-07T09:37:54;6.30;;;3.30;;
20619;SDS011;10469;42.720;23.252;2023-05-07T09:40:21;8.63;;;3.83;;
20619;SDS011;10469;42.720;23.252;2023-05-07T09:42:48;6.10;;;4.50;;
20619;SDS011;10469;42.720;23.252;2023-05-07T09:45:14;5.97;;;4.68;;
20619;SDS011;10469;42.720;23.252;2023-05-07T09:47:41;4.72;;;4.00;;
20619;SDS011;10469;42.720;23.252;2023-05-07T09:50:09;4.70;;;4.30;;
20619;SDS011;10469;42.720;23.252;2023-05-07T09:52:38;6.47;;;3.67;;
20619;SDS011;10469;42.720;23.252;2023-05-07T09:55:05;9.18;;;3.85;;
20619;SDS011;10469;42.720;23.252;2023-05-07T09:57:33;5.40;;;4.18;;
20619;SDS011;10469;42.720;23.252;2023-05-07T09:59:59;5.68;;;4.03;;
20619;SDS011;10469;42.720;23.252;2023-05-07T10:02:29;5.65;;;3.40;;
20619;SDS011;10469;42.720;23.252;2023-05-07T10:04:56;4.57;;;3.63;;
20619;SDS011;10469;42.720;23.252;2023-05-07T10:07:23;4.15;;;3.13;;
20619;SDS011;10469;42.720;23.252;2023-05-07T10:09:50;3.75;;;3.35;;
20619;SDS011;10469;42.720;23.252;2023-05-07T10:12:16;5.13;;;3.67;;
20619;SDS011;10469;42.720;23.252;2023-05-07T10:14:43;5.93;;;3.05;;
20619;SDS011;10469;42.720;23.252;2023-05-07T10:17:11;3.88;;;3.40;;
20619;SDS011;10469;42.720;23.252;2023-05-07T10:19:37;5.55;;;2.97;;
20619;SDS011;10469;42.720;23.252;2023-05-07T10:22:04;3.45;;;3.10;;
20619;SDS011;10469;42.720;23.252;2023-05-07T10:24:34;6.05;;;3.10;;
20619;SDS011;10469;42.720;23.252;2023-05-07T10:27:04;5.47;;;2.60;;
20619;SDS011;10469;42.720;23.252;2023-05-07T10:29:33;5.20;;;2.65;;
20619;SDS011;10469;42.720;23.252;2023-05-07T10:34:54;3.15;;;2.75;;
20619;SDS011;10469;42.720;23.252;2023-05-07T10:37:21;3.70;;;2.63;;
20619;SDS011;10469;42.720;23.252;2023-05-07T10:39:48;3.22;;;2.60;;
20619;SDS011;10469;42.720;23.252;2023-05-07T10:42:14;2.95;;;2.40;;
20619;SDS011;10469;42.720;23.252;2023-05-07T10:44:40;4.75;;;2.80;;
20619;SDS011;10469;42.720;23.252;2023-05-07T10:47:10;5.75;;;2.85;;
20619;SDS011;10469;42.720;23.252;2023-05-07T10:52:16;3.95;;;2.63;;
20619;SDS011;10469;42.720;23.252;2023-05-07T10:54:43;3.40;;;2.70;;
20619;SDS011;10469;42.720;23.252;2023-05-07T10:59:57;6.65;;;2.90;;
20619;SDS011;10469;42.720;23.252;2023-05-07T11:02:22;4.82;;;2.80;;
20619;SDS011;10469;42.720;23.252;2023-05-07T11:07:57;5.38;;;3.03;;
20619;SDS011;10469;42.720;23.252;2023-05-07T11:13:13;3.60;;;2.50;;
20619;SDS011;10469;42.720;23.252;2023-05-07T11:15:48;4.35;;;2.80;;
20619;SDS011;10469;42.720;23.252;2023-05-07T11:18:14;6.82;;;2.92;;
20619;SDS011;10469;42.720;23.252;2023-05-07T11:26:09;3.92;;;3.08;;
20619;SDS011;10469;42.720;23.252;2023-05-07T11:28:40;2.97;;;2.65;;
20619;SDS011;10469;42.720;23.252;2023-05-07T11:31:07;7.07;;;3.05;;
20619;SDS011;10469;42.720;23.252;2023-05-07T11:33:34;2.60;;;2.40;;
20619;SDS011;10469;42.720;23.252;2023-05-07T11:36:02;4.03;;;2.67;;
20619;SDS011;10469;42.720;23.252;2023-05-07T11:38:28;3.92;;;2.72;;
20619;SDS011;10469;42.720;23.252;2023-05-07T11:43:29;2.80;;;2.60;;
20619;SDS011;10469;42.720;23.252;2023-05-07T11:45:54;6.07;;;2.65;;
20619;SDS011;10469;42.720;23.252;2023-05-07T11:48:29;5.15;;;2.70;;
20619;SDS011;10469;42.720;23.252;2023-05-07T11:53:27;3.42;;;3.03;;
20619;SDS011;10469;42.720;23.252;2023-05-07T11:55:59;5.55;;;2.90;;
20619;SDS011;10469;42.720;23.252;2023-05-07T11:58:25;4.95;;;2.60;;
20619;SDS011;10469;42.720;23.252;2023-05-07T12:00:51;3.55;;;2.65;;
20619;SDS011;10469;42.720;23.252;2023-05-07T12:03:18;5.95;;;2.90;;
20619;SDS011;10469;42.720;23.252;2023-05-07T12:05:44;4.47;;;2.50;;
20619;SDS011;10469;42.720;23.252;2023-05-07T12:08:14;2.30;;;1.88;;
20619;SDS011;10469;42.720;23.252;2023-05-07T12:10:44;2.42;;;2.22;;
20619;SDS011;10469;42.720;23.252;2023-05-07T12:15:46;3.08;;;2.60;;
20619;SDS011;10469;42.720;23.252;2023-05-07T12:18:12;3.22;;;2.83;;
20619;SDS011;10469;42.720;23.252;2023-05-07T12:20:38;7.20;;;2.78;;
20619;SDS011;10469;42.720;23.252;2023-05-07T12:23:04;2.72;;;2.53;;
20619;SDS011;10469;42.720;23.252;2023-05-07T12:25:37;6.68;;;2.67;;
20619;SDS011;10469;42.720;23.252;2023-05-07T12:28:04;3.17;;;2.50;;
20619;SDS011;10469;42.720;23.252;2023-05-07T12:30:36;5.03;;;3.33;;
20619;SDS011;10469;42.720;23.252;2023-05-07T12:33:02;3.75;;;2.65;;
20619;SDS011;10469;42.720;23.252;2023-05-07T12:35:29;3.15;;;2.67;;
20619;SDS011;10469;42.720;23.252;2023-05-07T12:37:56;3.47;;;2.55;;
20619;SDS011;10469;42.720;23.252;2023-05-07T12:40:39;5.95;;;3.10;;
20619;SDS011;10469;42.720;23.252;2023-05-07T12:43:06;4.35;;;3.05;;
20619;SDS011;10469;42.720;23.252;2023-05-07T12:45:36;4.78;;;3.03;;
20619;SDS011;10469;42.720;23.252;2023-05-07T12:48:02;4.97;;;3.17;;
20619;SDS011;10469;42.720;23.252;2023-05-07T12:50:31;4.40;;;2.95;;
20619;SDS011;10469;42.720;23.252;2023-05-07T12:52:58;4.10;;;2.95;;
20619;SDS011;10469;42.720;23.252;2023-05-07T12:55:24;4.55;;;2.90;;
20619;SDS011;10469;42.720;23.252;2023-05-07T12:57:50;5.65;;;2.85;;
20619;SDS011;10469;42.720;23.252;2023-05-07T13:00:16;3.33;;;2.70;;
20619;SDS011;10469;42.720;23.252;2023-05-07T13:02:43;4.93;;;2.70;;
20619;SDS011;10469;42.720;23.252;2023-05-07T13:05:11;3.30;;;2.50;;
20619;SDS011;10469;42.720;23.252;2023-05-07T13:07:37;3.30;;;2.60;;
20619;SDS011;10469;42.720;23.252;2023-05-07T13:10:03;2.95;;;2.55;;
20619;SDS011;10469;42.720;23.252;2023-05-07T13:12:29;5.53;;;2.90;;
20619;SDS011;10469;42.720;23.252;2023-05-07T13:14:55;3.53;;;2.80;;
20619;SDS011;10469;42.720;23.252;2023-05-07T13:17:20;6.93;;;3.05;;
20619;SDS011;10469;42.720;23.252;2023-05-07T13:19:46;4.45;;;2.88;;
20619;SDS011;10469;42.720;23.252;2023-05-07T13:22:11;10.55;;;2.97;;
20619;SDS011;10469;42.720;23.252;2023-05-07T13:24:37;4.00;;;2.80;;
20619;SDS011;10469;42.720;23.252;2023-05-07T13:27:03;4.20;;;3.45;;
20619;SDS011;10469;42.720;23.252;2023-05-07T13:29:29;3.10;;;2.80;;
20619;SDS011;10469;42.720;23.252;2023-05-07T13:31:58;2.75;;;2.42;;
20619;SDS011;10469;42.720;23.252;2023-05-07T13:34:24;3.35;;;2.92;;
20619;SDS011;10469;42.720;23.252;2023-05-07T13:36:49;9.05;;;3.30;;
20619;SDS011;10469;42.720;23.252;2023-05-07T13:39:15;3.22;;;2.80;;
20619;SDS011;10469;42.720;23.252;2023-05-07T13:41:41;3.20;;;2.63;;
20619;SDS011;10469;42.720;23.252;2023-05-07T13:44:06;3.85;;;3.10;;
20619;SDS011;10469;42.720;23.252;2023-05-07T13:46:32;6.35;;;3.03;;
20619;SDS011;10469;42.720;23.252;2023-05-07T13:48:58;3.85;;;2.78;;
20619;SDS011;10469;42.720;23.252;2023-05-07T13:51:23;3.92;;;2.80;;
20619;SDS011;10469;42.720;23.252;2023-05-07T13:53:49;3.47;;;2.90;;
20619;SDS011;10469;42.720;23.252;2023-05-07T13:56:15;4.45;;;2.97;;
20619;SDS011;10469;42.720;23.252;2023-05-07T13:58:41;5.03;;;2.88;;
20619;SDS011;10469;42.720;23.252;2023-05-07T14:01:06;4.78;;;3.03;;
20619;SDS011;10469;42.720;23.252;2023-05-07T14:03:32;4.03;;;2.72;;
20619;SDS011;10469;42.720;23.252;2023-05-07T14:05:59;4.65;;;2.70;;
20619;SDS011;10469;42.720;23.252;2023-05-07T14:08:26;5.47;;;2.80;;
20619;SDS011;10469;42.720;23.252;2023-05-07T14:10:52;3.17;;;2.30;;
20619;SDS011;10469;42.720;23.252;2023-05-07T14:13:18;2.75;;;2.33;;
20619;SDS011;10469;42.720;23.252;2023-05-07T14:15:44;4.38;;;2.78;;
20619;SDS011;10469;42.720;23.252;2023-05-07T14:18:14;3.08;;;2.88;;
20619;SDS011;10469;42.720;23.252;2023-05-07T14:20:40;5.07;;;3.15;;
20619;SDS011;10469;42.720;23.252;2023-05-07T14:23:11;3.30;;;2.78;;
20619;SDS011;10469;42.720;23.252;2023-05-07T14:25:37;3.30;;;3.00;;
20619;SDS011;10469;42.720;23.252;2023-05-07T14:28:02;6.13;;;3.20;;
20619;SDS011;10469;42.720;23.252;2023-05-07T14:30:28;4.38;;;2.88;;
20619;SDS011;10469;42.720;23.252;2023-05-07T14:32:54;7.07;;;3.10;;
20619;SDS011;10469;42.720;23.252;2023-05-07T14:35:19;4.78;;;3.42;;
20619;SDS011;10469;42.720;23.252;2023-05-07T14:37:45;6.00;;;2.63;;
20619;SDS011;10469;42.720;23.252;2023-05-07T14:40:10;3.90;;;2.35;;
20619;SDS011;10469;42.720;23.252;2023-05-07T14:42:36;6.20;;;3.08;;
20619;SDS011;10469;42.720;23.252;2023-05-07T14:45:02;3.40;;;2.97;;
20619;SDS011;10469;42.720;23.252;2023-05-07T14:47:28;3.50;;;2.95;;